Time;durP1;ratioP1;P1;durP2;ratioP2;P2;SDS_P1;SDS_P2;PMS_P1;PMS_P2;Temp;Humidity;BMP_temperature;BMP_pressure;BME280_temperature;BME280_humidity;BME280_pressure;Samples;Min_cycle;Max_cycle;Signal;HPM_P1;HPM_P2
2024/01/29 00:01:41;;;;;;;20.65;13.35;;;8.80;99.90;;;;;;4265364;27;20047;-60
2024/01/29 00:03:45;;;;;;;;;;;8.80;99.90;;;;;;4265794;27;20476;-60
2024/01/29 00:05:47;;;;;;;18.90;12.73;;;8.80;99.90;;;;;;4265260;27;19919;-60
2024/01/29 00:07:49;;;;;;;19.95;13.70;;;8.70;99.90;;;;;;4265399;27;20430;-60
2024/01/29 00:09:51;;;;;;;19.45;13.57;;;8.70;99.90;;;;;;4265286;27;20057;-60
2024/01/29 00:11:53;;;;;;;21.50;12.60;;;8.70;99.90;;;;;;4264951;27;20039;-60
2024/01/29 00:13:55;;;;;;;17.67;12.18;;;8.70;99.90;;;;;;4265055;27;20050;-60
2024/01/29 00:15:59;;;;;;;19.77;14.00;;;8.70;99.90;;;;;;4265220;27;20459;-60
2024/01/29 00:18:03;;;;;;;22.00;13.95;;;8.70;99.90;;;;;;4265070;27;20074;-60
2024/01/29 00:20:07;;;;;;;20.75;14.10;;;8.60;99.90;;;;;;4265483;27;20111;-60
2024/01/29 00:22:09;;;;;;;16.45;12.18;;;8.60;99.90;;;;;;4264900;27;20042;-59
2024/01/29 00:24:12;;;;;;;17.67;12.90;;;8.60;99.90;;;;;;4265199;27;20047;-60
2024/01/29 00:26:14;;;;;;;18.85;12.77;;;8.60;99.90;;;;;;4264790;27;20066;-60
2024/01/29 00:28:16;;;;;;;16.48;12.27;;;8.70;99.90;;;;;;4264820;27;20051;-59
2024/01/29 00:30:19;;;;;;;18.23;13.60;;;8.70;99.90;;;;;;4246784;27;20047;-60
2024/01/29 00:32:21;;;;;;;19.60;14.05;;;8.70;99.90;;;;;;4264935;27;20043;-60
2024/01/29 00:34:25;;;;;;;19.98;12.15;;;8.80;99.90;;;;;;4264675;27;20058;-61
2024/01/29 00:36:28;;;;;;;20.17;13.73;;;8.80;99.90;;;;;;4255964;27;20039;-60
2024/01/29 00:38:30;;;;;;;20.17;12.90;;;8.80;99.90;;;;;;4229824;28;20051;-59
2024/01/29 00:40:33;;;;;;;20.05;13.20;;;8.80;99.90;;;;;;4247584;28;20088;-60
2024/01/29 00:42:35;;;;;;;18.65;13.07;;;8.70;99.90;;;;;;4247619;28;20171;-60
2024/01/29 00:44:37;;;;;;;18.75;12.90;;;8.60;99.90;;;;;;4247814;28;20437;-60
2024/01/29 00:46:40;;;;;;;20.45;14.23;;;8.60;99.90;;;;;;4247936;28;20391;-59
2024/01/29 00:48:42;;;;;;;19.25;12.95;;;8.60;99.90;;;;;;4229608;28;20501;-60
2024/01/29 00:50:45;;;;;;;18.75;13.10;;;8.60;99.90;;;;;;4247818;28;20071;-60
2024/01/29 00:52:47;;;;;;;18.80;12.80;;;8.60;99.90;;;;;;4247387;27;20458;-60
2024/01/29 00:54:50;;;;;;;19.67;13.25;;;8.60;99.90;;;;;;4247289;28;20044;-59
2024/01/29 00:56:52;;;;;;;18.00;11.98;;;8.60;99.90;;;;;;4247736;28;20455;-61
2024/01/29 00:58:54;;;;;;;18.13;13.13;;;8.70;99.90;;;;;;4248251;28;20047;-61
2024/01/29 01:00:56;;;;;;;15.63;11.48;;;8.80;99.90;;;;;;4249941;28;20043;-70
2024/01/29 01:02:58;;;;;;;18.30;12.30;;;8.70;99.90;;;;;;4249017;28;20047;-60
2024/01/29 01:05:01;;;;;;;19.25;12.88;;;8.70;99.90;;;;;;4248360;27;20047;-61
2024/01/29 01:07:05;;;;;;;18.00;12.05;;;8.60;99.90;;;;;;4247986;27;20047;-60
2024/01/29 01:09:09;;;;;;;20.15;12.63;;;8.60;99.90;;;;;;4247332;28;20040;-59
2024/01/29 01:11:12;;;;;;;16.15;12.45;;;8.60;99.90;;;;;;4247724;28;20047;-59
2024/01/29 01:13:14;;;;;;;18.20;13.15;;;8.60;99.90;;;;;;4247449;28;20104;-62
2024/01/29 01:15:16;;;;;;;18.02;11.30;;;8.60;99.90;;;;;;4247654;28;20043;-59
2024/01/29 01:17:18;;;;;;;14.88;10.95;;;8.60;99.90;;;;;;4247897;28;20044;-60
2024/01/29 01:19:20;;;;;;;16.45;11.20;;;8.70;99.90;;;;;;4247513;28;20124;-60
2024/01/29 01:21:22;;;;;;;18.02;10.90;;;8.80;99.90;;;;;;4247678;28;20108;-61
2024/01/29 01:23:26;;;;;;;17.48;11.20;;;8.80;99.90;;;;;;4247306;28;20138;-60
2024/01/29 01:25:30;;;;;;;16.55;12.02;;;8.80;99.90;;;;;;4247726;28;20071;-60
2024/01/29 01:27:33;;;;;;;17.05;11.45;;;8.70;99.90;;;;;;4247729;28;20351;-60
2024/01/29 01:29:35;;;;;;;16.50;10.88;;;8.70;99.90;;;;;;4247700;28;20070;-59
2024/01/29 01:31:37;;;;;;;16.48;11.43;;;8.90;99.90;;;;;;4247819;28;20043;-59
2024/01/29 01:33:39;;;;;;;16.75;11.60;;;8.90;99.90;;;;;;4247649;28;20135;-59
2024/01/29 01:35:44;;;;;;;16.75;10.88;;;8.90;99.90;;;;;;4247263;27;20047;-60
2024/01/29 01:37:46;;;;;;;16.20;11.85;;;9.00;99.90;;;;;;4249376;27;20188;-60
2024/01/29 01:39:52;;;;;;;15.35;11.50;;;9.00;99.90;;;;;;4232010;28;20479;-59
2024/01/29 01:41:55;;;;;;;15.43;10.95;;;9.00;99.90;;;;;;4250666;27;20051;-60
2024/01/29 01:43:57;;;;;;;16.13;10.55;;;8.90;99.90;;;;;;4232416;28;20167;-62
2024/01/29 01:46:20;;;;;;;14.35;11.50;;;8.90;99.90;;;;;;4251158;27;20100;-60
2024/01/29 01:48:22;;;;;;;15.05;10.57;;;9.00;99.90;;;;;;4250940;27;20432;-59
2024/01/29 01:50:24;;;;;;;15.52;11.07;;;8.90;99.90;;;;;;4251035;27;20047;-59
2024/01/29 01:52:27;;;;;;;16.58;11.27;;;8.80;99.90;;;;;;4251299;27;20138;-60
2024/01/29 01:54:29;;;;;;;12.43;9.70;;;8.80;99.90;;;;;;4251489;27;20137;-60
2024/01/29 01:56:36;;;;;;;18.50;10.57;;;8.80;99.90;;;;;;4233562;27;20529;-59
2024/01/29 01:58:40;;;;;;;17.33;11.27;;;8.80;99.90;;;;;;4253386;27;20050;-60
2024/01/29 02:00:43;;;;;;;14.52;10.20;;;8.60;99.90;;;;;;4235153;28;20044;-65
2024/01/29 02:02:46;;;;;;;15.85;11.07;;;8.60;99.90;;;;;;4252311;27;20516;-61
2024/01/29 02:04:48;;;;;;;14.70;10.20;;;8.50;99.90;;;;;;4252745;27;20051;-60
2024/01/29 02:06:51;;;;;;;17.52;11.88;;;8.60;99.90;;;;;;4252093;27;20122;-60
2024/01/29 02:08:54;;;;;;;15.90;10.70;;;8.60;99.90;;;;;;4251698;27;20119;-64
2024/01/29 02:11:00;;;;;;;14.05;10.68;;;8.70;99.90;;;;;;4250734;27;20047;-60
2024/01/29 02:13:10;;;;;;;14.93;10.75;;;8.60;99.90;;;;;;4250460;27;20126;-60
2024/01/29 02:15:12;;;;;;;16.17;10.90;;;8.50;99.90;;;;;;4249714;27;20075;-59
2024/01/29 02:17:14;;;;;;;17.13;10.10;;;8.50;99.90;;;;;;4249976;27;20043;-59
2024/01/29 02:19:17;;;;;;;15.07;10.45;;;8.60;99.90;;;;;;4250021;27;20047;-59
2024/01/29 02:21:19;;;;;;;15.98;11.63;;;8.60;99.90;;;;;;4249863;27;20048;-59
2024/01/29 02:23:23;;;;;;;14.00;10.18;;;8.60;99.90;;;;;;4249645;27;20070;-59
2024/01/29 02:25:25;;;;;;;14.38;10.82;;;8.60;99.90;;;;;;4249690;27;20550;-59
2024/01/29 02:27:27;;;;;;;14.18;9.98;;;8.50;99.90;;;;;;4249416;27;20050;-64
2024/01/29 02:29:30;;;;;;;17.70;11.05;;;8.50;99.90;;;;;;4249478;27;20061;-59
2024/01/29 02:31:32;;;;;;;17.98;11.63;;;8.40;99.90;;;;;;4249699;27;20506;-59
2024/01/29 02:33:35;;;;;;;15.45;10.65;;;8.40;99.90;;;;;;4231468;28;20127;-59
2024/01/29 02:35:37;;;;;;;14.32;10.65;;;8.30;99.90;;;;;;4249521;27;20387;-59
2024/01/29 02:37:39;;;;;;;13.27;9.85;;;8.30;99.90;;;;;;4249357;27;20130;-60
2024/01/29 02:39:43;;;;;;;15.80;11.32;;;8.40;99.90;;;;;;4231537;28;20043;-59
2024/01/29 02:41:45;;;;;;;15.88;11.13;;;8.40;99.90;;;;;;4249372;27;20055;-61
2024/01/29 02:43:47;;;;;;;18.13;13.05;;;8.40;99.90;;;;;;4249383;27;20460;-60
2024/01/29 02:45:50;;;;;;;17.55;12.27;;;8.20;99.90;;;;;;4249774;27;20045;-59
2024/01/29 02:47:52;;;;;;;15.48;10.88;;;8.10;99.90;;;;;;4251296;27;20065;-60
2024/01/29 02:49:54;;;;;;;15.70;10.75;;;8.20;99.90;;;;;;4251648;27;20039;-60
2024/01/29 02:51:56;;;;;;;16.65;11.45;;;8.20;99.90;;;;;;4231520;28;20491;-59
2024/01/29 02:53:58;;;;;;;14.98;10.32;;;8.20;99.90;;;;;;4249588;27;20505;-60
2024/01/29 02:56:02;;;;;;;16.42;10.80;;;8.10;99.90;;;;;;4249661;27;20039;-59
2024/01/29 02:58:04;;;;;;;17.55;11.85;;;8.10;99.90;;;;;;4249470;27;20043;-59
2024/01/29 03:00:07;;;;;;;16.27;10.95;;;8.10;99.90;;;;;;4249328;27;20140;-60
2024/01/29 03:02:09;;;;;;;13.48;10.27;;;8.10;99.90;;;;;;4230728;28;20043;-60
2024/01/29 03:04:11;;;;;;;18.45;11.00;;;8.10;99.90;;;;;;4249042;27;20054;-60
2024/01/29 03:06:14;;;;;;;17.25;12.05;;;8.10;99.90;;;;;;4248807;27;20500;-60
2024/01/29 03:08:16;;;;;;;18.25;11.20;;;8.10;99.90;;;;;;4249193;27;20074;-59
2024/01/29 03:10:18;;;;;;;12.73;9.82;;;8.20;99.90;;;;;;4249022;27;20042;-60
2024/01/29 03:12:21;;;;;;;15.00;10.35;;;8.20;99.90;;;;;;4249458;27;20473;-60
2024/01/29 03:14:24;;;;;;;15.27;10.95;;;8.20;99.90;;;;;;4248819;27;20051;-60
2024/01/29 03:16:26;;;;;;;18.30;11.32;;;8.10;99.90;;;;;;4249249;27;20061;-60
2024/01/29 03:18:28;;;;;;;16.60;11.68;;;8.10;99.90;;;;;;4248893;27;20455;-60
2024/01/29 03:20:30;;;;;;;16.55;10.55;;;8.20;99.90;;;;;;4248460;27;20053;-60
2024/01/29 03:22:32;;;;;;;16.30;11.63;;;8.10;99.90;;;;;;4248931;27;20043;-60
2024/01/29 03:24:34;;;;;;;15.98;10.40;;;8.00;99.90;;;;;;4248674;27;20050;-59
2024/01/29 03:26:36;;;;;;;17.77;11.52;;;8.10;99.90;;;;;;4249001;27;20053;-60
2024/01/29 03:28:40;;;;;;;17.10;10.57;;;8.10;99.90;;;;;;4249003;27;20047;-60
2024/01/29 03:30:43;;;;;;;14.23;10.05;;;8.20;99.90;;;;;;4248850;27;20050;-60
2024/01/29 03:32:45;;;;;;;14.90;10.55;;;8.20;99.90;;;;;;4248637;27;20485;-59
2024/01/29 03:34:47;;;;;;;15.30;10.80;;;8.30;99.90;;;;;;4248029;27;20081;-60
2024/01/29 03:36:49;;;;;;;14.68;10.23;;;8.20;99.90;;;;;;4248522;27;20074;-60
2024/01/29 03:38:52;;;;;;;15.48;10.75;;;8.20;99.90;;;;;;4248933;27;20481;-60
2024/01/29 03:40:54;;;;;;;14.57;10.00;;;8.20;99.90;;;;;;4248661;27;20050;-60
2024/01/29 03:42:56;;;;;;;17.98;10.68;;;8.20;99.90;;;;;;4230349;28;20051;-60
2024/01/29 03:45:00;;;;;;;13.63;9.95;;;8.10;99.90;;;;;;4248594;27;20070;-60
2024/01/29 03:47:02;;;;;;;14.10;9.85;;;8.20;99.90;;;;;;4248585;27;20078;-61
2024/01/29 03:49:04;;;;;;;16.30;10.90;;;8.20;99.90;;;;;;4248239;27;20122;-60
2024/01/29 03:51:06;;;;;;;15.05;10.50;;;8.10;99.90;;;;;;4248480;27;20062;-61
2024/01/29 03:53:08;;;;;;;14.25;10.25;;;8.30;99.90;;;;;;4230213;28;20134;-60
2024/01/29 03:55:10;;;;;;;14.23;10.07;;;8.30;99.90;;;;;;4248418;27;20493;-60
2024/01/29 03:57:13;;;;;;;14.65;9.68;;;8.30;99.90;;;;;;4250852;27;20053;-61
2024/01/29 03:59:15;;;;;;;14.27;9.40;;;8.30;99.90;;;;;;4250622;27;20043;-66
2024/01/29 04:01:27;;;;;;;12.85;9.07;;;8.30;99.90;;;;;;4249914;27;20047;-63
2024/01/29 04:03:29;;;;;;;13.82;9.43;;;8.20;99.90;;;;;;4247902;27;20122;-60
2024/01/29 04:05:31;;;;;;;12.38;9.07;;;8.30;99.90;;;;;;4249277;27;20047;-61
2024/01/29 04:07:33;;;;;;;15.98;9.85;;;8.30;99.90;;;;;;4250598;27;20049;-65
2024/01/29 04:09:35;;;;;;;15.13;10.40;;;8.40;99.90;;;;;;4249984;27;20075;-61
2024/01/29 04:11:38;;;;;;;12.05;8.90;;;8.30;99.90;;;;;;4249222;27;20070;-60
2024/01/29 04:13:40;;;;;;;18.58;10.30;;;8.30;99.90;;;;;;4247993;27;20077;-60
2024/01/29 04:15:42;;;;;;;14.45;9.70;;;8.20;99.90;;;;;;4229709;28;20071;-60
2024/01/29 04:17:46;;;;;;;11.23;7.85;;;8.20;99.90;;;;;;4247600;27;20070;-60
2024/01/29 04:19:48;;;;;;;16.63;8.85;;;8.30;99.90;;;;;;4248298;27;20464;-58
2024/01/29 04:21:50;;;;;;;12.85;9.07;;;8.30;99.90;;;;;;4247974;27;20094;-59
2024/01/29 04:23:52;;;;;;;11.20;8.50;;;8.30;99.90;;;;;;4248141;27;20066;-59
2024/01/29 04:25:54;;;;;;;13.90;9.90;;;8.30;99.90;;;;;;4247947;27;20047;-59
2024/01/29 04:27:57;;;;;;;14.05;10.02;;;8.20;99.90;;;;;;4247898;27;20485;-59
2024/01/29 04:30:01;;;;;;;11.38;8.18;;;8.30;99.90;;;;;;4247869;27;20047;-59
2024/01/29 04:32:05;;;;;;;11.98;7.43;;;8.20;99.90;;;;;;4247691;27;20039;-59
2024/01/29 04:34:09;;;;;;;12.32;8.52;;;8.30;99.90;;;;;;4248908;28;20051;-72
2024/01/29 04:36:12;;;;;;;;;;;8.30;99.90;;;;;;4251512;27;20047;-60
2024/01/29 04:38:14;;;;;;;11.75;7.38;;;8.30;99.90;;;;;;4249734;27;19919;-60
2024/01/29 04:40:16;;;;;;;12.23;8.25;;;8.30;99.90;;;;;;4248259;28;20067;-60
2024/01/29 04:42:18;;;;;;;9.77;7.28;;;8.40;99.90;;;;;;4247947;28;20406;-60
2024/01/29 04:44:20;;;;;;;15.00;7.78;;;8.30;99.90;;;;;;4248028;28;20069;-60
2024/01/29 04:46:23;;;;;;;9.57;6.97;;;8.40;99.90;;;;;;4247817;28;20057;-60
2024/01/29 04:48:25;;;;;;;11.27;7.15;;;8.50;99.90;;;;;;4247782;28;20054;-59
2024/01/29 04:50:28;;;;;;;12.70;7.82;;;8.50;99.90;;;;;;4247597;28;20405;-60
2024/01/29 04:52:30;;;;;;;12.07;7.45;;;8.60;99.90;;;;;;4247752;28;20046;-60
2024/01/29 04:54:32;;;;;;;10.63;7.18;;;8.70;99.90;;;;;;4247593;28;20056;-60
2024/01/29 04:56:35;;;;;;;9.70;7.10;;;8.70;99.90;;;;;;4247771;28;20070;-60
2024/01/29 04:58:38;;;;;;;10.98;7.00;;;8.60;99.90;;;;;;4249398;28;20043;-61
2024/01/29 05:00:40;;;;;;;10.48;6.55;;;8.50;99.90;;;;;;4248895;27;20053;-60
2024/01/29 05:02:42;;;;;;;10.02;6.60;;;8.50;99.90;;;;;;4248810;28;20039;-60
2024/01/29 05:04:44;;;;;;;12.25;7.50;;;8.60;99.90;;;;;;4248930;28;20055;-60
2024/01/29 05:06:48;;;;;;;10.52;7.75;;;8.70;99.90;;;;;;4249395;28;20047;-59
2024/01/29 05:08:50;;;;;;;10.55;7.63;;;8.50;99.90;;;;;;4248529;28;20044;-64
2024/01/29 05:10:54;;;;;;;9.85;7.45;;;8.60;99.90;;;;;;4247936;27;20426;-59
2024/01/29 05:12:56;;;;;;;9.10;6.75;;;8.40;99.90;;;;;;4250080;27;20096;-60
2024/01/29 05:14:58;;;;;;;9.60;6.75;;;8.50;99.90;;;;;;4250978;27;20129;-60
2024/01/29 05:17:00;;;;;;;11.93;7.50;;;8.60;99.90;;;;;;4250484;27;20043;-60
2024/01/29 05:19:03;;;;;;;8.98;6.50;;;8.60;99.90;;;;;;4250737;27;20412;-60
2024/01/29 05:21:05;;;;;;;9.85;6.68;;;8.60;99.90;;;;;;4250524;27;20047;-61
2024/01/29 05:23:08;;;;;;;7.45;6.00;;;8.70;99.90;;;;;;4250710;27;20046;-60
2024/01/29 05:25:11;;;;;;;9.43;6.45;;;8.70;99.90;;;;;;4250735;27;20050;-60
2024/01/29 05:27:13;;;;;;;10.98;6.38;;;8.70;99.90;;;;;;4250509;27;20053;-61
2024/01/29 05:29:15;;;;;;;12.60;7.07;;;8.70;99.90;;;;;;4250648;27;20047;-60
2024/01/29 05:31:17;;;;;;;13.10;6.88;;;8.70;99.90;;;;;;4250317;27;20047;-59
2024/01/29 05:33:20;;;;;;;9.48;6.82;;;8.90;99.90;;;;;;4250672;27;20378;-60
2024/01/29 05:35:27;;;;;;;9.75;6.70;;;8.90;99.90;;;;;;4250235;27;20501;-59
2024/01/29 05:37:31;;;;;;;12.35;7.03;;;8.80;99.90;;;;;;4250466;27;20539;-59
2024/01/29 05:39:35;;;;;;;9.98;7.15;;;8.60;99.90;;;;;;4232389;28;20380;-59
2024/01/29 05:41:37;;;;;;;9.23;7.25;;;8.60;99.90;;;;;;4250500;27;20069;-59
2024/01/29 05:43:39;;;;;;;11.20;7.30;;;8.60;99.90;;;;;;4250380;27;20075;-59
2024/01/29 05:45:41;;;;;;;11.40;6.75;;;8.60;99.90;;;;;;4250091;27;20047;-59
2024/01/29 05:47:44;;;;;;;10.07;6.70;;;8.60;99.90;;;;;;4232275;28;20040;-59
2024/01/29 05:49:46;;;;;;;11.45;7.18;;;8.50;99.90;;;;;;4250291;27;20085;-59
2024/01/29 05:51:48;;;;;;;12.68;7.90;;;8.60;99.90;;;;;;4250370;27;20070;-59
2024/01/29 05:53:50;;;;;;;9.82;7.32;;;8.60;99.90;;;;;;4250068;27;20055;-59
2024/01/29 05:55:53;;;;;;;8.52;6.50;;;8.60;99.90;;;;;;4250124;27;20047;-59
2024/01/29 05:57:55;;;;;;;9.05;7.10;;;8.60;99.90;;;;;;4250226;27;20402;-60
2024/01/29 05:59:57;;;;;;;12.85;7.65;;;8.70;99.90;;;;;;4249980;27;20047;-59
2024/01/29 06:02:00;;;;;;;13.00;8.18;;;8.60;99.90;;;;;;4250248;27;20404;-59
2024/01/29 06:04:02;;;;;;;11.05;7.30;;;8.60;99.90;;;;;;4250574;27;20100;-59
2024/01/29 06:06:05;;;;;;;12.60;7.60;;;8.60;99.90;;;;;;4250833;27;20039;-61
2024/01/29 06:08:08;;;;;;;9.70;6.47;;;8.50;99.90;;;;;;4250096;27;20043;-60
2024/01/29 06:10:12;;;;;;;8.13;6.65;;;8.60;99.90;;;;;;4249998;27;20092;-59
2024/01/29 06:12:16;;;;;;;11.43;7.75;;;8.60;99.90;;;;;;4250158;27;20125;-61
2024/01/29 06:14:18;;;;;;;10.88;7.22;;;8.60;99.90;;;;;;4249762;27;20049;-60
2024/01/29 06:16:23;;;;;;;13.70;7.45;;;8.60;99.90;;;;;;4249734;27;20083;-59
2024/01/29 06:18:25;;;;;;;;;;;8.50;99.90;;;;;;4250773;27;20473;-60
2024/01/29 06:20:27;;;;;;;10.73;7.65;;;8.50;99.90;;;;;;4250302;27;19920;-59
2024/01/29 06:22:29;;;;;;;8.38;6.43;;;8.40;99.90;;;;;;4250287;27;20039;-67
2024/01/29 06:24:31;;;;;;;14.07;6.32;;;8.50;99.90;;;;;;4251534;27;20084;-63
2024/01/29 06:26:35;;;;;;;11.40;7.05;;;8.60;99.90;;;;;;4250363;27;20103;-60
2024/01/29 06:28:38;;;;;;;9.68;7.10;;;8.50;99.90;;;;;;4249715;27;20413;-59
2024/01/29 06:30:40;;;;;;;12.73;7.53;;;8.50;99.90;;;;;;4249811;27;20047;-60
2024/01/29 06:32:43;;;;;;;9.77;6.90;;;8.50;99.90;;;;;;4231844;28;20054;-66
2024/01/29 06:34:45;;;;;;;9.73;7.45;;;8.50;99.90;;;;;;4250140;27;20043;-60
2024/01/29 06:36:47;;;;;;;8.80;6.45;;;8.60;99.90;;;;;;4249807;27;20114;-60
2024/01/29 06:38:50;;;;;;;9.65;7.07;;;8.70;99.90;;;;;;4249866;27;20062;-60
2024/01/29 06:40:52;;;;;;;10.55;6.68;;;8.50;99.90;;;;;;4249858;27;20066;-61
2024/01/29 06:42:55;;;;;;;12.20;7.60;;;8.60;99.90;;;;;;4249952;27;20069;-61
2024/01/29 06:44:59;;;;;;;11.40;7.00;;;8.70;99.90;;;;;;4250006;27;20043;-60
2024/01/29 06:47:01;;;;;;;11.60;7.05;;;8.50;99.90;;;;;;4249911;27;20512;-60
2024/01/29 06:49:03;;;;;;;10.85;7.32;;;8.50;99.90;;;;;;4249890;27;20043;-60
2024/01/29 06:51:06;;;;;;;8.60;6.85;;;8.50;99.90;;;;;;4249806;27;20051;-61
2024/01/29 06:53:08;;;;;;;9.68;6.80;;;8.50;99.90;;;;;;4233346;28;20048;-64
2024/01/29 06:55:12;;;;;;;11.40;7.22;;;8.50;99.90;;;;;;4252001;27;20039;-62
2024/01/29 06:57:14;;;;;;;8.97;5.87;;;8.60;99.90;;;;;;4251958;27;20142;-63
2024/01/29 06:59:18;;;;;;;8.95;6.50;;;8.50;99.90;;;;;;4251729;27;20051;-63
2024/01/29 07:01:22;;;;;;;12.18;7.28;;;8.50;99.90;;;;;;4233872;28;20048;-63
2024/01/29 07:03:24;;;;;;;12.00;7.53;;;8.50;99.90;;;;;;4251475;27;20050;-60
2024/01/29 07:05:26;;;;;;;13.02;7.13;;;8.50;99.90;;;;;;4249493;27;20113;-60
2024/01/29 07:07:28;;;;;;;12.35;7.70;;;8.50;99.90;;;;;;4249369;27;20047;-60
2024/01/29 07:09:31;;;;;;;12.88;7.93;;;8.50;99.90;;;;;;4249356;27;20131;-61
2024/01/29 07:11:34;;;;;;;16.67;7.93;;;8.40;99.90;;;;;;4249043;27;20071;-60
2024/01/29 07:13:36;;;;;;;13.20;7.35;;;8.50;99.90;;;;;;4249271;27;20043;-60
2024/01/29 07:15:40;;;;;;;9.73;7.40;;;8.40;99.90;;;;;;4231033;28;20508;-61
2024/01/29 07:17:43;;;;;;;11.48;7.65;;;8.40;99.90;;;;;;4249168;27;20061;-62
2024/01/29 07:19:48;;;;;;;13.20;7.53;;;8.30;99.90;;;;;;4249240;27;20039;-61
2024/01/29 07:21:51;;;;;;;11.90;7.60;;;8.30;99.90;;;;;;4249020;27;20043;-60
2024/01/29 07:23:53;;;;;;;14.75;8.30;;;8.30;99.90;;;;;;4248746;27;20043;-60
2024/01/29 07:25:56;;;;;;;14.15;7.35;;;8.30;99.90;;;;;;4248448;27;20482;-59
2024/01/29 07:28:04;;;;;;;12.23;7.85;;;8.30;99.90;;;;;;4249184;27;20099;-61
2024/01/29 07:30:07;;;;;;;10.05;6.70;;;8.30;99.90;;;;;;4249079;27;20039;-59
2024/01/29 07:32:14;;;;;;;11.35;7.60;;;8.30;99.90;;;;;;4231412;28;20111;-60
2024/01/29 07:34:17;;;;;;;18.25;8.23;;;8.40;99.90;;;;;;4248611;27;20043;-61
2024/01/29 07:36:20;;;;;;;12.85;8.32;;;8.40;99.90;;;;;;4247956;27;20486;-59
2024/01/29 07:38:22;;;;;;;14.52;8.40;;;8.40;99.90;;;;;;4248851;27;20047;-61
2024/01/29 07:40:24;;;;;;;12.93;7.00;;;8.40;99.90;;;;;;4247836;27;20459;-60
2024/01/29 07:42:26;;;;;;;12.23;7.93;;;8.50;99.90;;;;;;4248725;27;20387;-60
2024/01/29 07:44:29;;;;;;;13.18;7.30;;;8.60;99.90;;;;;;4248782;27;20496;-60
2024/01/29 07:46:31;;;;;;;10.75;6.63;;;8.60;99.90;;;;;;4248757;27;20055;-60
2024/01/29 07:48:33;;;;;;;13.07;7.93;;;8.50;99.90;;;;;;4248532;27;20160;-59
2024/01/29 07:50:37;;;;;;;11.82;7.93;;;8.60;99.90;;;;;;4248496;27;20043;-60
2024/01/29 07:52:39;;;;;;;13.60;7.82;;;8.70;99.90;;;;;;4248275;27;20505;-60
2024/01/29 07:54:46;;;;;;;12.48;7.82;;;8.70;99.90;;;;;;4230775;27;20043;-60
2024/01/29 07:56:48;;;;;;;12.13;6.53;;;8.70;99.90;;;;;;4247992;27;20043;-59
2024/01/29 07:58:50;;;;;;;12.77;7.90;;;8.70;99.90;;;;;;4248285;27;20087;-60
2024/01/29 08:00:52;;;;;;;10.57;7.45;;;8.80;99.90;;;;;;4248210;27;20047;-60
2024/01/29 08:02:54;;;;;;;14.32;7.90;;;8.80;99.90;;;;;;4248344;27;20043;-64
2024/01/29 08:04:56;;;;;;;12.52;7.97;;;8.80;99.90;;;;;;4248558;27;20141;-60
2024/01/29 08:07:01;;;;;;;19.13;8.35;;;8.90;99.90;;;;;;4249058;27;20075;-60
2024/01/29 08:09:06;;;;;;;18.92;9.38;;;8.90;99.90;;;;;;4249631;27;20096;-61
2024/01/29 08:11:08;;;;;;;16.95;8.00;;;8.90;99.90;;;;;;4250894;27;20382;-60
2024/01/29 08:13:14;;;;;;;14.98;7.97;;;8.90;99.90;;;;;;4248974;27;20342;-60
2024/01/29 08:15:17;;;;;;;13.95;8.50;;;8.90;99.90;;;;;;4247494;27;20068;-58
2024/01/29 08:17:19;;;;;;;15.73;7.80;;;8.90;99.90;;;;;;4229815;28;20054;-60
2024/01/29 08:19:22;;;;;;;15.65;8.02;;;9.00;99.90;;;;;;4247899;27;20046;-60
2024/01/29 08:21:27;;;;;;;14.30;6.70;;;9.00;99.90;;;;;;4247621;27;20043;-60
2024/01/29 08:23:30;;;;;;;13.65;6.90;;;9.10;99.90;;;;;;4248201;27;20074;-57
2024/01/29 08:25:32;;;;;;;11.60;6.40;;;9.20;99.90;;;;;;4247884;27;20047;-58
2024/01/29 08:27:35;;;;;;;11.85;6.80;;;9.30;99.90;;;;;;4252894;27;20125;-56
2024/01/29 08:29:37;;;;;;;9.68;6.45;;;9.50;99.90;;;;;;4265145;27;20050;-57
2024/01/29 08:31:39;;;;;;;14.77;6.40;;;9.50;99.90;;;;;;4261861;27;20043;-57
2024/01/29 08:33:43;;;;;;;17.08;7.25;;;9.60;99.90;;;;;;4249069;28;20061;-58
2024/01/29 08:35:46;;;;;;;9.90;5.78;;;9.70;99.90;;;;;;4248990;27;23514;-61
2024/01/29 08:37:48;;;;;;;13.07;6.05;;;10.00;99.90;;;;;;4251179;27;20462;-58
2024/01/29 08:39:52;;;;;;;11.13;7.03;;;10.10;99.90;;;;;;4259009;27;20043;-58
2024/01/29 08:41:54;;;;;;;12.65;7.20;;;10.20;99.90;;;;;;4229522;28;20119;-60
2024/01/29 08:43:56;;;;;;;13.95;6.93;;;10.10;99.90;;;;;;4252528;27;20046;-57
2024/01/29 08:45:58;;;;;;;14.38;7.15;;;10.20;99.90;;;;;;4265524;27;20054;-57
2024/01/29 08:48:06;;;;;;;12.18;7.22;;;10.20;99.90;;;;;;4250309;27;20043;-58
2024/01/29 08:50:09;;;;;;;11.65;6.60;;;10.20;99.90;;;;;;4268797;27;20061;-58
2024/01/29 08:52:13;;;;;;;12.50;6.43;;;10.30;99.90;;;;;;4269081;27;20054;-59
2024/01/29 08:54:16;;;;;;;13.93;6.63;;;10.30;99.90;;;;;;4268868;27;20049;-61
2024/01/29 08:56:20;;;;;;;11.55;6.32;;;10.40;99.90;;;;;;4262691;27;20043;-68
2024/01/29 08:58:23;;;;;;;11.30;6.93;;;10.50;99.90;;;;;;4252346;27;20133;-65
2024/01/29 09:00:27;;;;;;;14.35;6.97;;;10.60;99.90;;;;;;4233289;28;20127;-60
2024/01/29 09:02:31;;;;;;;11.07;6.80;;;10.60;99.90;;;;;;4251501;27;20385;-58
2024/01/29 09:04:33;;;;;;;14.07;7.07;;;10.70;99.90;;;;;;4251195;27;20447;-58
2024/01/29 09:06:35;;;;;;;12.27;6.35;;;10.80;99.90;;;;;;4250948;27;20050;-57
2024/01/29 09:08:38;;;;;;;14.63;5.88;;;11.00;99.90;;;;;;4250966;27;20043;-57
2024/01/29 09:10:40;;;;;;;10.27;6.60;;;11.00;99.90;;;;;;4250687;27;20047;-57
2024/01/29 09:12:43;;;;;;;18.02;6.82;;;11.00;99.90;;;;;;4232769;28;20039;-58
2024/01/29 09:14:46;;;;;;;11.52;6.40;;;11.10;99.90;;;;;;4252267;27;20043;-59
2024/01/29 09:16:48;;;;;;;10.60;5.85;;;11.10;99.90;;;;;;4251105;27;20486;-58
2024/01/29 09:18:50;;;;;;;19.58;7.20;;;11.20;99.90;;;;;;4255988;27;20474;-58
2024/01/29 09:20:52;;;;;;;13.13;6.43;;;11.20;99.90;;;;;;4250131;27;20043;-58
2024/01/29 09:22:56;;;;;;;11.65;6.28;;;11.30;99.90;;;;;;4264172;27;20164;-58
2024/01/29 09:24:58;;;;;;;11.80;6.65;;;11.30;99.90;;;;;;4265226;27;20485;-57
2024/01/29 09:27:01;;;;;;;13.15;6.43;;;11.20;99.90;;;;;;4248595;27;20043;-59
2024/01/29 09:29:04;;;;;;;15.70;6.05;;;11.20;99.80;;;;;;4261757;27;20047;-57
2024/01/29 09:31:07;;;;;;;11.98;6.40;;;11.30;99.80;;;;;;4249902;27;20473;-58
2024/01/29 09:33:09;;;;;;;12.20;6.57;;;11.10;99.90;;;;;;4265445;27;20046;-58
2024/01/29 09:35:22;;;;;;;15.38;6.35;;;11.00;99.90;;;;;;4267430;27;20091;-57
2024/01/29 09:37:24;;;;;;;10.73;6.10;;;11.00;99.90;;;;;;4256999;27;20049;-57
2024/01/29 09:39:26;;;;;;;9.32;5.72;;;11.10;99.90;;;;;;4248832;27;20563;-57
2024/01/29 09:41:33;;;;;;;11.05;6.53;;;11.00;99.90;;;;;;4267230;27;20087;-58
2024/01/29 09:43:36;;;;;;;12.73;6.38;;;11.10;99.90;;;;;;4266724;27;20099;-58
2024/01/29 09:45:41;;;;;;;12.30;6.53;;;11.10;99.90;;;;;;4266842;27;20445;-57
2024/01/29 09:47:43;;;;;;;;;;;11.10;99.90;;;;;;4266191;27;20035;-58
2024/01/29 09:49:46;;;;;;;11.90;7.05;;;11.20;99.90;;;;;;4254613;27;19923;-58
2024/01/29 09:51:49;;;;;;;12.10;6.55;;;11.10;99.90;;;;;;4260097;27;20117;-58
2024/01/29 09:53:54;;;;;;;10.18;6.60;;;11.10;99.90;;;;;;4265561;27;20101;-58
2024/01/29 09:55:56;;;;;;;15.02;6.15;;;11.10;99.90;;;;;;4266008;27;20396;-65
2024/01/29 09:57:58;;;;;;;19.98;7.03;;;11.00;99.90;;;;;;4267317;27;20034;-62
2024/01/29 10:00:01;;;;;;;13.13;6.53;;;11.10;99.90;;;;;;4267459;27;20058;-57
2024/01/29 10:02:04;;;;;;;13.35;6.65;;;11.10;99.90;;;;;;4266828;27;20055;-56
2024/01/29 10:04:08;;;;;;;;;;;11.10;99.90;;;;;;4245949;27;20043;-57
2024/01/29 10:06:11;;;;;;;11.98;6.53;;;11.10;99.90;;;;;;4263216;27;19919;-57
2024/01/29 10:08:14;;;;;;;12.85;7.47;;;11.00;99.90;;;;;;4254527;27;20039;-58
2024/01/29 10:10:18;;;;;;;14.07;7.20;;;11.10;99.90;;;;;;4255299;27;20129;-59
2024/01/29 10:12:22;;;;;;;9.23;6.18;;;11.10;99.90;;;;;;4248060;27;20065;-58
2024/01/29 10:14:25;;;;;;;22.95;6.97;;;11.10;99.90;;;;;;4266040;27;20070;-57
2024/01/29 10:16:28;;;;;;;14.60;7.43;;;11.10;99.90;;;;;;4266259;27;20477;-57
2024/01/29 10:18:32;;;;;;;19.13;8.00;;;11.20;99.90;;;;;;4266565;27;20045;-58
2024/01/29 10:20:34;;;;;;;15.05;7.32;;;11.20;99.90;;;;;;4265622;27;20038;-56
2024/01/29 10:22:36;;;;;;;12.15;6.63;;;11.30;99.90;;;;;;4266572;27;20043;-57
2024/01/29 10:24:38;;;;;;;14.57;7.30;;;11.40;99.90;;;;;;4266285;27;20050;-57
2024/01/29 10:26:41;;;;;;;14.60;6.97;;;11.40;99.90;;;;;;4266720;27;20082;-58
2024/01/29 10:28:43;;;;;;;16.05;6.95;;;11.40;99.90;;;;;;4266650;27;20108;-61
2024/01/29 10:30:45;;;;;;;12.88;6.95;;;11.50;99.90;;;;;;4266694;27;20039;-60
2024/01/29 10:32:47;;;;;;;14.43;7.00;;;11.50;99.90;;;;;;4266803;27;20047;-58
2024/01/29 10:34:50;;;;;;;13.18;7.60;;;11.50;99.90;;;;;;4266258;27;20122;-59
2024/01/29 10:36:57;;;;;;;17.77;7.22;;;11.50;99.90;;;;;;4278679;27;20418;-58